Time;durP1;ratioP1;P1;durP2;ratioP2;P2;SDS_P1;SDS_P2;PMS_P1;PMS_P2;Temp;Humidity;BMP_temperature;BMP_pressure;BME280_temperature;BME280_humidity;BME280_pressure;Samples;Min_cycle;Max_cycle;Signal;HPM_P1;HPM_P2
2021/07/01 00:01:58;;;;;;;205.88;45.25;;;;;;;;;;5059254;28;20021;-70
2021/07/01 00:04:26;;;;;;;193.75;49.47;;;;;;;;;;5033542;28;20384;-69
2021/07/01 00:06:53;;;;;;;154.40;46.03;;;;;;;;;;5063879;28;20081;-69
2021/07/01 00:09:23;;;;;;;239.63;48.38;;;;;;;;;;5051792;28;20537;-70
2021/07/01 00:11:51;;;;;;;129.18;47.70;;;;;;;;;;5065644;28;20522;-70
2021/07/01 00:14:19;;;;;;;135.02;47.30;;;;;;;;;;5062967;28;20027;-70
2021/07/01 00:16:47;;;;;;;265.00;52.17;;;;;;;;;;5048537;28;20098;-70
2021/07/01 00:19:15;;;;;;;169.15;52.95;;;;;;;;;;5051694;28;20474;-69
2021/07/01 00:21:42;;;;;;;163.05;52.63;;;;;;;;;;5044241;28;20033;-70
2021/07/01 00:24:10;;;;;;;139.35;48.22;;;;;;;;;;5051737;28;20029;-70
2021/07/01 00:26:41;;;;;;;139.23;50.47;;;;;;;;;;5038839;28;20021;-70
2021/07/01 00:29:08;;;;;;;139.40;49.58;;;;;;;;;;5052462;28;20029;-70
2021/07/01 00:31:35;;;;;;;118.28;45.80;;;;;;;;;;5051295;28;20088;-70
2021/07/01 00:34:02;;;;;;;116.18;46.63;;;;;;;;;;5051017;28;20057;-68
2021/07/01 00:36:29;;;;;;;124.18;48.40;;;;;;;;;;5051622;28;20028;-68
2021/07/01 00:38:57;;;;;;;151.35;49.25;;;;;;;;;;5051418;28;20025;-69
2021/07/01 00:41:24;;;;;;;125.15;49.30;;;;;;;;;;5049897;28;20385;-69
2021/07/01 00:43:51;;;;;;;138.02;49.25;;;;;;;;;;5051009;28;20481;-69
2021/07/01 00:46:19;;;;;;;118.95;49.97;;;;;;;;;;5051945;28;20526;-69
2021/07/01 00:48:49;;;;;;;102.13;47.80;;;;;;;;;;5046903;28;20029;-67
2021/07/01 00:51:17;;;;;;;91.72;43.85;;;;;;;;;;5041583;28;20064;-68
2021/07/01 00:53:44;;;;;;;90.40;43.15;;;;;;;;;;5026702;28;20498;-69
2021/07/01 00:56:14;;;;;;;102.10;42.63;;;;;;;;;;5045982;28;20033;-69
2021/07/01 00:58:42;;;;;;;101.07;45.28;;;;;;;;;;5039375;28;20079;-69
2021/07/01 01:01:09;;;;;;;93.90;43.95;;;;;;;;;;5046228;28;20029;-68
2021/07/01 01:03:37;;;;;;;87.57;42.83;;;;;;;;;;5055123;28;20028;-69
2021/07/01 01:06:05;;;;;;;78.78;42.42;;;;;;;;;;5050975;28;20029;-68
2021/07/01 01:08:32;;;;;;;87.78;41.45;;;;;;;;;;5043798;28;20056;-69
2021/07/01 01:11:00;;;;;;;85.95;43.03;;;;;;;;;;5045612;28;20036;-70
2021/07/01 01:13:27;;;;;;;81.78;42.00;;;;;;;;;;5041127;28;20032;-69
2021/07/01 01:15:59;;;;;;;85.43;42.55;;;;;;;;;;5031505;28;20489;-70
2021/07/01 01:18:26;;;;;;;84.90;44.47;;;;;;;;;;5040074;28;20052;-69
2021/07/01 01:20:55;;;;;;;80.57;42.05;;;;;;;;;;5046789;28;20423;-69
2021/07/01 01:23:22;;;;;;;85.75;43.05;;;;;;;;;;5043400;28;20466;-70
2021/07/01 01:25:55;;;;;;;81.25;43.22;;;;;;;;;;5030498;28;20394;-69
2021/07/01 01:28:22;;;;;;;71.53;41.75;;;;;;;;;;5044729;28;20033;-69
2021/07/01 01:30:49;;;;;;;82.13;44.72;;;;;;;;;;5034441;28;20032;-70
2021/07/01 01:33:16;;;;;;;79.53;44.22;;;;;;;;;;5053617;28;20111;-69
2021/07/01 01:35:44;;;;;;;85.35;45.00;;;;;;;;;;5052672;28;20451;-70
2021/07/01 01:38:13;;;;;;;83.53;46.40;;;;;;;;;;5026434;28;20028;-69
2021/07/01 01:40:42;;;;;;;87.03;47.10;;;;;;;;;;5034278;28;20074;-70
2021/07/01 01:43:09;;;;;;;83.28;45.47;;;;;;;;;;5032170;28;20029;-71
2021/07/01 01:45:40;;;;;;;88.68;47.05;;;;;;;;;;5050262;28;20075;-70
2021/07/01 01:48:07;;;;;;;91.10;50.53;;;;;;;;;;5023424;28;20661;-70
2021/07/01 01:50:35;;;;;;;88.32;48.50;;;;;;;;;;5035156;28;20048;-70
2021/07/01 01:53:02;;;;;;;86.68;47.88;;;;;;;;;;5052475;28;20083;-71
2021/07/01 01:55:30;;;;;;;83.80;46.35;;;;;;;;;;5034069;28;20036;-70
2021/07/01 01:57:57;;;;;;;95.53;47.50;;;;;;;;;;5050239;28;20029;-70
2021/07/01 02:00:25;;;;;;;82.22;45.72;;;;;;;;;;5048911;28;20382;-70
2021/07/01 02:02:53;;;;;;;75.50;43.78;;;;;;;;;;5048315;28;20031;-71
2021/07/01 02:05:20;;;;;;;78.97;44.58;;;;;;;;;;5028773;28;20523;-72
2021/07/01 02:07:48;;;;;;;78.70;46.10;;;;;;;;;;5049726;28;20017;-72
2021/07/01 02:10:21;;;;;;;76.15;45.25;;;;;;;;;;5048359;28;20021;-72
2021/07/01 02:12:48;;;;;;;68.75;43.58;;;;;;;;;;5046197;28;20021;-72
2021/07/01 02:15:17;;;;;;;68.10;39.58;;;;;;;;;;5050834;28;20033;-71
2021/07/01 02:17:45;;;;;;;61.90;37.83;;;;;;;;;;5033706;28;20436;-71
2021/07/01 02:20:13;;;;;;;61.10;35.58;;;;;;;;;;5046984;28;20039;-70
2021/07/01 02:22:41;;;;;;;52.45;32.95;;;;;;;;;;5044270;28;20071;-71
2021/07/01 02:25:09;;;;;;;52.25;32.88;;;;;;;;;;5038817;28;20048;-71
2021/07/01 02:27:36;;;;;;;45.78;29.63;;;;;;;;;;5016568;28;20060;-71
2021/07/01 02:30:04;;;;;;;46.88;28.95;;;;;;;;;;5045893;28;20045;-71
2021/07/01 02:32:31;;;;;;;45.75;29.33;;;;;;;;;;5020268;28;20052;-71
2021/07/01 02:34:59;;;;;;;43.80;28.67;;;;;;;;;;5018653;28;20410;-71
2021/07/01 02:37:26;;;;;;;50.67;31.98;;;;;;;;;;5023060;28;20489;-71
2021/07/01 02:39:53;;;;;;;49.25;29.67;;;;;;;;;;5049516;28;20075;-70
2021/07/01 02:42:20;;;;;;;45.10;28.98;;;;;;;;;;5049600;28;20102;-70
2021/07/01 02:44:47;;;;;;;46.97;30.05;;;;;;;;;;5041329;28;20493;-71
2021/07/01 02:47:15;;;;;;;46.45;28.42;;;;;;;;;;5055508;28;20028;-70
2021/07/01 02:49:42;;;;;;;52.47;33.03;;;;;;;;;;5023429;28;20030;-71
2021/07/01 02:52:09;;;;;;;48.88;31.65;;;;;;;;;;5039536;28;20035;-70
2021/07/01 02:54:36;;;;;;;45.38;29.52;;;;;;;;;;5039225;28;20025;-71
2021/07/01 02:57:03;;;;;;;44.72;28.60;;;;;;;;;;5027224;28;20048;-72
2021/07/01 02:59:31;;;;;;;42.10;25.65;;;;;;;;;;5037908;28;20029;-73
2021/07/01 03:01:58;;;;;;;42.10;24.73;;;;;;;;;;5030028;28;20040;-72
2021/07/01 03:04:25;;;;;;;46.42;26.20;;;;;;;;;;5029058;28;20108;-72
2021/07/01 03:06:52;;;;;;;36.83;22.75;;;;;;;;;;5047046;28;20037;-73
2021/07/01 03:09:20;;;;;;;39.70;24.85;;;;;;;;;;5027972;28;20032;-73
2021/07/01 03:11:47;;;;;;;37.33;21.98;;;;;;;;;;5032267;28;20520;-70
2021/07/01 03:14:15;;;;;;;31.98;21.65;;;;;;;;;;5030053;28;20035;-71
2021/07/01 03:16:42;;;;;;;33.63;20.85;;;;;;;;;;5042317;28;20045;-71
2021/07/01 03:19:09;;;;;;;33.50;18.55;;;;;;;;;;5047977;28;20078;-71
2021/07/01 03:21:36;;;;;;;29.27;19.00;;;;;;;;;;5029015;28;20032;-70
2021/07/01 03:24:03;;;;;;;33.00;18.92;;;;;;;;;;5025997;28;20530;-71
2021/07/01 03:26:30;;;;;;;29.52;18.90;;;;;;;;;;5034393;28;20461;-69
2021/07/01 03:28:57;;;;;;;31.55;17.30;;;;;;;;;;5037420;28;20029;-70
2021/07/01 03:31:24;;;;;;;23.77;15.52;;;;;;;;;;5036614;28;20037;-69
2021/07/01 03:33:52;;;;;;;24.73;16.17;;;;;;;;;;5045416;28;20045;-70
2021/07/01 03:36:19;;;;;;;26.85;17.85;;;;;;;;;;5023019;28;20025;-70
2021/07/01 03:38:46;;;;;;;26.70;16.80;;;;;;;;;;5047904;28;20021;-70
2021/07/01 03:41:13;;;;;;;28.02;17.63;;;;;;;;;;5040494;28;20497;-70
2021/07/01 03:43:44;;;;;;;28.63;17.67;;;;;;;;;;5046601;28;20067;-70
2021/07/01 03:46:11;;;;;;;28.02;16.42;;;;;;;;;;5035716;28;20036;-69
2021/07/01 03:48:38;;;;;;;33.63;19.45;;;;;;;;;;5045101;28;20021;-70
2021/07/01 03:51:06;;;;;;;31.50;17.88;;;;;;;;;;5025025;28;20041;-70
2021/07/01 03:53:33;;;;;;;31.92;18.40;;;;;;;;;;5032661;28;20032;-70
2021/07/01 03:56:01;;;;;;;29.77;17.92;;;;;;;;;;5050219;28;20443;-70
2021/07/01 03:58:28;;;;;;;30.52;19.40;;;;;;;;;;5034604;28;20025;-69
2021/07/01 04:00:55;;;;;;;29.25;18.40;;;;;;;;;;5039399;28;20428;-69
2021/07/01 04:03:22;;;;;;;32.13;18.35;;;;;;;;;;5040846;28;20101;-70
2021/07/01 04:05:49;;;;;;;30.27;17.33;;;;;;;;;;5024939;28;20083;-70
2021/07/01 04:08:16;;;;;;;28.55;17.20;;;;;;;;;;5020935;28;20037;-71
2021/07/01 04:10:44;;;;;;;29.02;17.13;;;;;;;;;;5033023;28;20032;-70
2021/07/01 04:13:11;;;;;;;27.00;17.73;;;;;;;;;;5018612;28;20061;-70
2021/07/01 04:15:38;;;;;;;28.17;18.83;;;;;;;;;;5044856;28;20033;-70
2021/07/01 04:18:18;;;;;;;31.95;18.67;;;;;;;;;;5035146;28;20474;-71
2021/07/01 04:20:45;;;;;;;27.27;15.05;;;;;;;;;;5040456;28;20029;-71
2021/07/01 04:23:12;;;;;;;22.02;12.63;;;;;;;;;;5044400;28;20022;-71
2021/07/01 04:25:39;;;;;;;24.63;12.55;;;;;;;;;;5037466;28;20096;-71
2021/07/01 04:28:06;;;;;;;20.98;13.80;;;;;;;;;;5045206;28;20370;-70
2021/07/01 04:30:34;;;;;;;23.58;13.38;;;;;;;;;;5022815;28;20370;-69
2021/07/01 04:33:01;;;;;;;26.73;12.80;;;;;;;;;;5024321;28;20592;-71
2021/07/01 04:35:28;;;;;;;22.30;11.88;;;;;;;;;;5038391;28;20041;-70
2021/07/01 04:37:58;;;;;;;21.38;8.75;;;;;;;;;;5022545;28;20145;-70
2021/07/01 04:40:25;;;;;;;15.98;8.18;;;;;;;;;;5056874;28;20013;-70
2021/07/01 04:42:52;;;;;;;12.32;5.93;;;;;;;;;;5046061;28;20032;-71
2021/07/01 04:45:20;;;;;;;8.80;4.95;;;;;;;;;;5032161;28;20043;-70
2021/07/01 04:47:47;;;;;;;16.83;5.32;;;;;;;;;;5025767;28;20041;-70
2021/07/01 04:50:14;;;;;;;12.43;4.78;;;;;;;;;;5044554;28;20032;-70
2021/07/01 04:52:41;;;;;;;12.38;5.50;;;;;;;;;;5043120;28;20027;-70
2021/07/01 04:55:08;;;;;;;13.18;4.75;;;;;;;;;;5028418;28;22669;-69
2021/07/01 04:57:35;;;;;;;9.57;3.80;;;;;;;;;;5020649;28;20052;-70
2021/07/01 05:00:03;;;;;;;19.67;4.10;;;;;;;;;;5054389;28;20033;-70
2021/07/01 05:02:30;;;;;;;14.60;4.85;;;;;;;;;;5052592;28;20021;-71
2021/07/01 05:04:58;;;;;;;12.95;3.50;;;;;;;;;;5029629;28;20029;-70
2021/07/01 05:07:25;;;;;;;12.20;2.90;;;;;;;;;;5033717;28;20034;-71
2021/07/01 05:09:52;;;;;;;7.97;2.95;;;;;;;;;;5049031;28;20040;-70
2021/07/01 05:12:19;;;;;;;7.22;2.42;;;;;;;;;;5045136;28;20040;-71
2021/07/01 05:14:46;;;;;;;5.40;1.95;;;;;;;;;;5038993;28;20068;-71
2021/07/01 05:17:13;;;;;;;8.77;1.70;;;;;;;;;;5052852;28;20109;-70
2021/07/01 05:19:41;;;;;;;13.52;2.53;;;;;;;;;;5049190;28;20112;-71
2021/07/01 05:22:08;;;;;;;5.15;1.80;;;;;;;;;;5054241;28;20060;-71
2021/07/01 05:24:35;;;;;;;8.60;2.10;;;;;;;;;;5052278;28;20393;-70
2021/07/01 05:27:03;;;;;;;6.95;2.30;;;;;;;;;;5048343;28;20032;-71
2021/07/01 05:29:30;;;;;;;9.10;2.45;;;;;;;;;;5040360;28;20029;-71
2021/07/01 05:31:58;;;;;;;8.50;3.38;;;;;;;;;;5015547;28;20390;-71
2021/07/01 05:34:25;;;;;;;8.75;1.60;;;;;;;;;;5038482;28;20131;-71
2021/07/01 05:36:52;;;;;;;7.18;1.85;;;;;;;;;;5040756;28;20033;-71
2021/07/01 05:39:19;;;;;;;9.45;1.80;;;;;;;;;;5041489;28;20144;-71
2021/07/01 05:41:46;;;;;;;12.55;3.10;;;;;;;;;;5044237;28;20512;-71
2021/07/01 05:44:14;;;;;;;9.95;3.05;;;;;;;;;;5047805;28;20051;-69
2021/07/01 05:46:41;;;;;;;10.07;3.15;;;;;;;;;;5052912;28;20032;-70
2021/07/01 05:49:08;;;;;;;48.10;14.90;;;;;;;;;;5025759;28;20414;-71
2021/07/01 05:51:36;;;;;;;28.90;9.88;;;;;;;;;;5048411;28;20033;-72
2021/07/01 05:54:13;;;;;;;17.90;4.00;;;;;;;;;;5046316;28;20688;-70
2021/07/01 05:56:40;;;;;;;10.63;2.83;;;;;;;;;;5046904;28;20025;-74
2021/07/01 05:59:08;;;;;;;11.63;4.07;;;;;;;;;;5059218;28;20032;-71
2021/07/01 06:01:36;;;;;;;9.93;4.22;;;;;;;;;;5056395;28;20107;-73
2021/07/01 06:04:07;;;;;;;11.52;4.00;;;;;;;;;;5061909;28;20028;-73
2021/07/01 06:06:35;;;;;;;10.43;2.88;;;;;;;;;;5038410;28;20025;-73
2021/07/01 06:09:04;;;;;;;9.85;2.33;;;;;;;;;;5053149;28;20428;-73
2021/07/01 06:11:33;;;;;;;9.55;3.28;;;;;;;;;;5048247;28;20037;-73
2021/07/01 06:14:02;;;;;;;27.75;16.67;;;;;;;;;;5042572;28;20035;-73
2021/07/01 06:16:32;;;;;;;11.85;2.30;;;;;;;;;;5052587;28;20082;-72
2021/07/01 06:19:01;;;;;;;27.17;17.05;;;;;;;;;;5060672;28;20109;-73
2021/07/01 06:21:29;;;;;;;6.57;3.22;;;;;;;;;;5051134;28;20416;-74
2021/07/01 06:23:56;;;;;;;28.70;19.58;;;;;;;;;;5033634;28;20112;-73
2021/07/01 06:26:29;;;;;;;21.00;11.05;;;;;;;;;;5050736;28;20056;-73
2021/07/01 06:28:57;;;;;;;8.43;4.35;;;;;;;;;;5052575;28;20017;-73
2021/07/01 06:31:24;;;;;;;10.25;3.25;;;;;;;;;;5058214;28;20040;-72
2021/07/01 06:33:52;;;;;;;11.40;3.75;;;;;;;;;;5053818;28;20405;-73
2021/07/01 06:36:20;;;;;;;9.65;3.10;;;;;;;;;;5044006;28;20063;-71
2021/07/01 06:38:48;;;;;;;8.63;2.95;;;;;;;;;;5053231;28;20029;-72
2021/07/01 06:41:17;;;;;;;13.55;3.17;;;;;;;;;;5051387;28;20096;-71
2021/07/01 06:43:47;;;;;;;11.05;3.20;;;;;;;;;;5051226;28;20105;-71
2021/07/01 06:46:14;;;;;;;10.07;2.65;;;;;;;;;;5061829;28;20059;-71
2021/07/01 06:48:43;;;;;;;10.52;3.00;;;;;;;;;;5045650;28;20469;-72
2021/07/01 06:51:11;;;;;;;7.60;2.28;;;;;;;;;;5063035;28;20044;-72
2021/07/01 06:53:40;;;;;;;10.93;3.50;;;;;;;;;;5055203;28;20099;-71
2021/07/01 06:56:07;;;;;;;11.93;3.38;;;;;;;;;;5067048;28;20064;-72
2021/07/01 06:58:36;;;;;;;7.97;3.40;;;;;;;;;;5058696;28;20028;-72
2021/07/01 07:01:04;;;;;;;13.55;3.97;;;;;;;;;;5030569;28;20051;-71
2021/07/01 07:03:31;;;;;;;10.52;3.25;;;;;;;;;;5036640;28;20029;-68
2021/07/01 07:06:01;;;;;;;11.57;4.50;;;;;;;;;;5034835;28;20040;-68
2021/07/01 07:08:28;;;;;;;38.92;23.30;;;;;;;;;;5064927;28;20043;-68
2021/07/01 07:10:55;;;;;;;12.63;4.82;;;;;;;;;;5045922;28;20525;-68
2021/07/01 07:13:26;;;;;;;12.05;4.43;;;;;;;;;;5041036;28;20112;-68
2021/07/01 07:16:00;;;;;;;12.48;4.03;;;;;;;;;;5049204;28;20029;-68
2021/07/01 07:18:30;;;;;;;10.35;3.65;;;;;;;;;;5038403;28;20041;-68
2021/07/01 07:20:59;;;;;;;8.85;3.80;;;;;;;;;;5040256;28;20048;-69
2021/07/01 07:23:29;;;;;;;13.40;4.03;;;;;;;;;;5047531;28;20484;-69
2021/07/01 07:25:57;;;;;;;14.05;5.70;;;;;;;;;;5047199;28;20496;-69
2021/07/01 07:28:26;;;;;;;9.45;4.20;;;;;;;;;;5040820;28;20028;-69
2021/07/01 07:30:54;;;;;;;15.15;3.55;;;;;;;;;;5021028;28;20490;-68
2021/07/01 07:33:25;;;;;;;10.85;5.38;;;;;;;;;;5025378;28;20090;-69
2021/07/01 07:35:53;;;;;;;12.50;4.25;;;;;;;;;;5052563;28;20125;-69
2021/07/01 07:38:20;;;;;;;15.98;4.40;;;;;;;;;;5042152;28;20116;-69
2021/07/01 07:40:52;;;;;;;14.10;4.53;;;;;;;;;;5041257;28;20378;-69
2021/07/01 07:43:21;;;;;;;11.25;4.43;;;;;;;;;;5035680;28;20702;-69
2021/07/01 07:45:49;;;;;;;8.88;4.28;;;;;;;;;;5032840;28;20444;-69
2021/07/01 07:48:16;;;;;;;12.00;4.20;;;;;;;;;;5034198;28;20107;-69
2021/07/01 07:50:46;;;;;;;11.25;4.22;;;;;;;;;;5048932;28;20366;-68
2021/07/01 07:53:18;;;;;;;12.20;4.30;;;;;;;;;;5034923;28;20014;-69
2021/07/01 07:55:47;;;;;;;10.63;4.72;;;;;;;;;;5035566;28;20666;-69
2021/07/01 07:58:14;;;;;;;12.93;4.82;;;;;;;;;;5038285;28;20536;-69
2021/07/01 08:00:42;;;;;;;12.70;4.82;;;;;;;;;;5014003;28;20044;-69
2021/07/01 08:03:10;;;;;;;28.02;6.75;;;;;;;;;;5032030;28;20033;-69
2021/07/01 08:05:39;;;;;;;14.80;4.97;;;;;;;;;;5034436;28;20104;-69
2021/07/01 08:08:12;;;;;;;11.77;3.92;;;;;;;;;;5037819;28;20017;-69
2021/07/01 08:10:40;;;;;;;14.98;4.40;;;;;;;;;;5037328;28;20024;-69
2021/07/01 08:13:08;;;;;;;16.98;5.80;;;;;;;;;;5019649;28;20486;-69
2021/07/01 08:15:40;;;;;;;18.00;6.55;;;;;;;;;;5020139;28;20521;-69
2021/07/01 08:18:08;;;;;;;18.77;6.45;;;;;;;;;;5027299;28;20033;-68
2021/07/01 08:20:35;;;;;;;15.43;6.40;;;;;;;;;;5024055;28;20079;-69
2021/07/01 08:23:03;;;;;;;16.30;5.47;;;;;;;;;;5020569;28;20029;-69
2021/07/01 08:25:30;;;;;;;13.85;5.78;;;;;;;;;;5043267;28;20026;-70
2021/07/01 08:27:58;;;;;;;20.50;7.53;;;;;;;;;;5013504;28;20040;-70
2021/07/01 08:30:26;;;;;;;12.98;5.07;;;;;;;;;;5041404;28;20035;-71
2021/07/01 08:32:55;;;;;;;16.23;5.47;;;;;;;;;;5014790;28;20033;-70
2021/07/01 08:35:24;;;;;;;13.43;5.03;;;;;;;;;;5032857;28;20041;-71
2021/07/01 08:37:52;;;;;;;13.75;4.55;;;;;;;;;;5020153;28;20422;-70
2021/07/01 08:40:20;;;;;;;20.00;4.78;;;;;;;;;;5017571;28;20041;-71
2021/07/01 08:42:52;;;;;;;16.02;5.20;;;;;;;;;;5014592;28;20118;-70
2021/07/01 08:45:19;;;;;;;18.75;5.50;;;;;;;;;;5015508;28;20029;-70
2021/07/01 08:47:47;;;;;;;16.45;6.15;;;;;;;;;;5041269;28;20501;-70
2021/07/01 08:50:18;;;;;;;17.65;7.00;;;;;;;;;;5036048;28;20056;-70
2021/07/01 08:52:57;;;;;;;23.70;6.97;;;;;;;;;;5032241;28;20021;-71
2021/07/01 08:55:27;;;;;;;17.58;6.22;;;;;;;;;;5014114;28;20092;-70
2021/07/01 08:57:56;;;;;;;17.38;6.72;;;;;;;;;;5038901;28;20385;-70
2021/07/01 09:00:24;;;;;;;19.70;7.25;;;;;;;;;;5034942;28;20051;-71
2021/07/01 09:03:04;;;;;;;17.98;5.53;;;;;;;;;;5027457;28;20394;-71
2021/07/01 09:05:32;;;;;;;14.63;5.47;;;;;;;;;;5021376;28;20095;-70
2021/07/01 09:08:00;;;;;;;21.42;5.68;;;;;;;;;;5018620;28;20057;-70
2021/07/01 09:10:30;;;;;;;21.08;5.25;;;;;;;;;;5036859;28;20060;-70
2021/07/01 09:12:58;;;;;;;20.75;7.25;;;;;;;;;;5032779;28;20029;-71
2021/07/01 09:15:26;;;;;;;16.33;8.93;;;;;;;;;;5054150;28;20107;-71
2021/07/01 09:17:54;;;;;;;21.75;7.25;;;;;;;;;;5021850;28;20401;-69
2021/07/01 09:20:27;;;;;;;20.15;8.13;;;;;;;;;;5041258;28;20029;-71
2021/07/01 09:22:56;;;;;;;16.38;7.68;;;;;;;;;;5024280;28;20033;-71
2021/07/01 09:25:24;;;;;;;22.33;7.20;;;;;;;;;;5042650;28;20053;-70
2021/07/01 09:27:52;;;;;;;18.10;8.82;;;;;;;;;;5037209;28;20025;-70
2021/07/01 09:30:25;;;;;;;20.38;8.73;;;;;;;;;;5040237;28;20094;-70
2021/07/01 09:32:54;;;;;;;28.13;10.65;;;;;;;;;;5026798;28;20088;-71
2021/07/01 09:35:22;;;;;;;26.15;12.93;;;;;;;;;;5015758;28;20116;-72
2021/07/01 09:37:50;;;;;;;19.65;12.10;;;;;;;;;;5029732;28;20037;-73
2021/07/01 09:40:19;;;;;;;20.00;10.90;;;;;;;;;;5019089;28;20093;-73
2021/07/01 09:42:59;;;;;;;22.90;11.13;;;;;;;;;;5016266;28;20097;-72
2021/07/01 09:45:27;;;;;;;20.45;12.00;;;;;;;;;;5026663;28;20082;-73
2021/07/01 09:47:56;;;;;;;30.70;18.30;;;;;;;;;;5020658;28;20061;-73
2021/07/01 09:50:25;;;;;;;33.30;20.83;;;;;;;;;;5023893;28;20482;-72
2021/07/01 09:52:53;;;;;;;32.22;17.17;;;;;;;;;;5019282;28;20030;-71
2021/07/01 09:55:20;;;;;;;26.05;16.23;;;;;;;;;;5027047;28;20498;-73
2021/07/01 09:57:51;;;;;;;28.65;17.52;;;;;;;;;;5026173;28;20589;-72
2021/07/01 10:00:18;;;;;;;27.67;18.80;;;;;;;;;;5025880;28;20491;-73
2021/07/01 10:02:46;;;;;;;32.47;18.77;;;;;;;;;;5029670;28;20029;-74
2021/07/01 10:05:29;;;;;;;28.52;18.75;;;;;;;;;;5029493;28;20033;-72
2021/07/01 10:07:56;;;;;;;32.22;19.60;;;;;;;;;;5024490;28;20061;-72
2021/07/01 10:10:24;;;;;;;34.03;21.40;;;;;;;;;;5015337;28;20075;-72
2021/07/01 10:12:52;;;;;;;35.08;23.10;;;;;;;;;;5014331;28;20033;-72
2021/07/01 10:15:30;;;;;;;32.33;22.48;;;;;;;;;;5021823;28;20026;-71
2021/07/01 10:18:08;;;;;;;30.75;20.77;;;;;;;;;;5013388;28;20030;-70
2021/07/01 10:20:38;;;;;;;38.00;22.83;;;;;;;;;;5013699;28;20058;-71
2021/07/01 10:23:26;;;;;;;30.27;19.90;;;;;;;;;;5015214;28;20026;-71
2021/07/01 10:25:54;;;;;;;27.98;21.20;;;;;;;;;;5014386;28;20026;-71
2021/07/01 10:28:22;;;;;;;37.05;23.38;;;;;;;;;;5032224;28;20029;-71
2021/07/01 10:31:07;;;;;;;39.53;25.70;;;;;;;;;;5023166;28;20030;-71
2021/07/01 10:33:36;;;;;;;39.40;25.25;;;;;;;;;;5016970;28;20088;-71
2021/07/01 10:36:04;;;;;;;35.58;25.05;;;;;;;;;;5031795;28;20041;-71
2021/07/01 10:38:48;;;;;;;35.33;24.52;;;;;;;;;;5016912;28;20033;-72
2021/07/01 10:41:28;;;;;;;37.10;24.52;;;;;;;;;;5017072;28;20029;-72
2021/07/01 10:43:55;;;;;;;35.85;24.25;;;;;;;;;;5024507;28;20143;-69
2021/07/01 10:46:36;;;;;;;37.17;24.77;;;;;;;;;;5029026;28;20044;-72
2021/07/01 10:49:03;;;;;;;40.97;25.75;;;;;;;;;;5033867;28;20045;-72
2021/07/01 10:51:31;;;;;;;41.20;27.40;;;;;;;;;;5019227;28;20061;-71
2021/07/01 10:54:18;;;;;;;44.13;28.55;;;;;;;;;;5020844;28;20033;-72
2021/07/01 10:56:46;;;;;;;47.78;29.40;;;;;;;;;;5027488;28;20061;-71
2021/07/01 10:59:13;;;;;;;42.30;29.92;;;;;;;;;;5028368;28;20036;-71
2021/07/01 11:01:42;;;;;;;44.75;30.25;;;;;;;;;;5021154;28;20033;-72
2021/07/01 11:04:16;;;;;;;42.80;30.27;;;;;;;;;;5022498;28;22537;-71
2021/07/01 11:06:44;;;;;;;45.33;31.77;;;;;;;;;;5030153;28;20045;-71
2021/07/01 11:09:13;;;;;;;53.58;33.15;;;;;;;;;;5026588;28;20523;-69
2021/07/01 11:11:42;;;;;;;46.47;30.35;;;;;;;;;;5031336;28;20033;-70
2021/07/01 11:14:13;;;;;;;45.20;30.20;;;;;;;;;;5030817;28;20045;-70
2021/07/01 11:16:42;;;;;;;48.33;29.48;;;;;;;;;;5044572;28;20041;-70
2021/07/01 11:19:10;;;;;;;39.92;28.38;;;;;;;;;;5042567;28;20026;-70
2021/07/01 11:21:38;;;;;;;41.28;28.88;;;;;;;;;;5043594;28;20017;-70
2021/07/01 11:24:17;;;;;;;39.83;28.30;;;;;;;;;;5016768;28;20378;-70
2021/07/01 11:26:46;;;;;;;38.97;27.27;;;;;;;;;;5039103;28;20029;-70
2021/07/01 11:29:13;;;;;;;41.05;27.23;;;;;;;;;;5026932;28;20106;-71
2021/07/01 11:31:40;;;;;;;42.38;27.95;;;;;;;;;;5031585;28;20053;-70
2021/07/01 11:34:08;;;;;;;43.38;27.52;;;;;;;;;;5034310;28;20049;-70
2021/07/01 11:36:36;;;;;;;36.90;26.45;;;;;;;;;;5050163;28;20470;-70
2021/07/01 11:39:17;;;;;;;40.28;28.25;;;;;;;;;;5039010;28;20029;-70
2021/07/01 11:41:45;;;;;;;40.75;26.60;;;;;;;;;;5046778;28;20103;-70
2021/07/01 11:44:13;;;;;;;38.28;26.63;;;;;;;;;;5043604;28;20101;-70
2021/07/01 11:46:41;;;;;;;33.85;25.50;;;;;;;;;;5037801;28;20386;-70
2021/07/01 11:49:09;;;;;;;40.38;27.67;;;;;;;;;;5028280;28;20116;-70
2021/07/01 11:51:36;;;;;;;39.00;28.88;;;;;;;;;;5037698;28;20526;-70
2021/07/01 11:54:04;;;;;;;35.67;25.88;;;;;;;;;;5025149;28;20082;-72
2021/07/01 11:56:53;;;;;;;37.35;27.35;;;;;;;;;;5041388;28;20037;-70
2021/07/01 11:59:19;;;;;;;35.92;25.98;;;;;;;;;;5049603;28;20029;-70
2021/07/01 12:01:47;;;;;;;40.22;26.75;;;;;;;;;;5035022;28;20025;-70
2021/07/01 12:04:15;;;;;;;40.30;26.15;;;;;;;;;;5023543;28;20033;-70
2021/07/01 12:06:42;;;;;;;39.38;27.33;;;;;;;;;;5028235;28;20090;-70
2021/07/01 12:09:12;;;;;;;36.80;26.08;;;;;;;;;;5036751;28;20060;-70
2021/07/01 12:12:12;;;;;;;39.65;26.83;;;;;;;;;;5021979;28;20486;-70
2021/07/01 12:14:40;;;;;;;34.72;25.05;;;;;;;;;;5014924;28;20408;-70
2021/07/01 12:17:08;;;;;;;35.72;25.38;;;;;;;;;;5018865;28;20032;-70
2021/07/01 12:19:59;;;;;;;39.25;26.10;;;;;;;;;;5051264;28;20025;-71
2021/07/01 12:22:44;;;;;;;34.80;25.48;;;;;;;;;;5031114;28;20123;-71
2021/07/01 12:25:34;;;;;;;34.13;25.40;;;;;;;;;;5038978;28;20026;-71
2021/07/01 12:28:07;;;;;;;30.50;23.00;;;;;;;;;;5022025;28;20501;-70
2021/07/01 12:30:56;;;;;;;29.65;22.02;;;;;;;;;;5019636;28;20493;-71
2021/07/01 12:33:35;;;;;;;36.10;23.70;;;;;;;;;;5035809;28;20382;-71
2021/07/01 12:36:08;;;;;;;32.83;23.75;;;;;;;;;;5017178;28;20401;-71
2021/07/01 12:38:36;;;;;;;33.50;24.27;;;;;;;;;;5046553;28;20075;-71
2021/07/01 12:41:05;;;;;;;39.70;27.20;;;;;;;;;;5035390;28;20041;-70
2021/07/01 12:43:46;;;;;;;33.97;25.10;;;;;;;;;;5021502;28;20029;-71
2021/07/01 12:46:33;;;;;;;34.75;25.75;;;;;;;;;;5025248;28;20025;-71
2021/07/01 12:49:00;;;;;;;34.03;24.45;;;;;;;;;;5042070;28;20029;-71
2021/07/01 12:51:50;;;;;;;33.53;23.33;;;;;;;;;;5028907;28;20025;-71
2021/07/01 12:54:26;;;;;;;33.13;24.58;;;;;;;;;;5043288;28;20485;-70
2021/07/01 12:56:56;;;;;;;32.72;24.27;;;;;;;;;;5048259;28;20482;-71
2021/07/01 12:59:27;;;;;;;30.75;23.60;;;;;;;;;;5031811;28;20048;-70
2021/07/01 13:02:11;;;;;;;30.83;23.25;;;;;;;;;;5024185;28;20047;-71
2021/07/01 13:04:42;;;;;;;31.88;21.27;;;;;;;;;;5041967;28;20068;-71
2021/07/01 13:07:10;;;;;;;32.20;21.92;;;;;;;;;;5039641;28;20437;-70
2021/07/01 13:09:45;;;;;;;32.80;22.73;;;;;;;;;;5026525;28;20087;-70
2021/07/01 13:12:14;;;;;;;30.02;21.45;;;;;;;;;;5044342;28;20111;-70
2021/07/01 13:14:42;;;;;;;33.85;22.92;;;;;;;;;;5022376;28;20029;-70
2021/07/01 13:17:09;;;;;;;29.40;21.48;;;;;;;;;;5023408;28;20038;-70
2021/07/01 13:19:44;;;;;;;33.47;22.52;;;;;;;;;;5042225;28;20026;-70
2021/07/01 13:22:11;;;;;;;30.98;21.92;;;;;;;;;;5018834;28;20033;-70
2021/07/01 13:24:50;;;;;;;30.48;20.98;;;;;;;;;;5044671;28;20470;-70
2021/07/01 13:27:37;;;;;;;29.63;22.15;;;;;;;;;;5025709;28;20033;-70
2021/07/01 13:30:07;;;;;;;31.48;22.58;;;;;;;;;;5010350;28;20041;-70
2021/07/01 13:32:34;;;;;;;32.03;23.40;;;;;;;;;;5021258;28;20039;-69
2021/07/01 13:35:01;;;;;;;32.42;22.48;;;;;;;;;;5040501;28;20507;-70
2021/07/01 13:37:30;;;;;;;36.35;24.42;;;;;;;;;;5039357;28;20036;-71
2021/07/01 13:39:59;;;;;;;33.08;25.08;;;;;;;;;;5037386;28;20044;-70
2021/07/01 13:42:26;;;;;;;36.22;25.17;;;;;;;;;;5040349;28;20031;-71
2021/07/01 13:45:03;;;;;;;31.52;23.48;;;;;;;;;;5020236;28;20030;-71
2021/07/01 13:47:30;;;;;;;37.95;27.20;;;;;;;;;;5038704;28;20037;-71
2021/07/01 13:49:57;;;;;;;42.70;27.65;;;;;;;;;;5041665;28;20547;-70
2021/07/01 13:52:25;;;;;;;42.50;28.38;;;;;;;;;;5038645;28;20101;-71
2021/07/01 13:54:52;;;;;;;49.67;32.13;;;;;;;;;;5024621;28;20430;-71
2021/07/01 13:57:29;;;;;;;55.28;34.92;;;;;;;;;;5030964;28;20083;-71
2021/07/01 14:00:00;;;;;;;52.70;33.17;;;;;;;;;;5041534;28;20024;-71
2021/07/01 14:02:27;;;;;;;60.72;35.15;;;;;;;;;;5053404;28;20021;-70
2021/07/01 14:04:55;;;;;;;57.97;35.38;;;;;;;;;;5060527;28;20433;-70
2021/07/01 14:07:29;;;;;;;62.63;38.53;;;;;;;;;;5042653;28;20035;-71
2021/07/01 14:10:13;;;;;;;64.75;40.75;;;;;;;;;;5055126;28;20021;-70
2021/07/01 14:12:41;;;;;;;71.20;40.85;;;;;;;;;;5039296;28;20021;-70
2021/07/01 14:15:12;;;;;;;67.85;39.25;;;;;;;;;;5054696;28;20597;-70
2021/07/01 14:17:39;;;;;;;63.63;37.83;;;;;;;;;;5063868;28;20031;-70
2021/07/01 14:20:06;;;;;;;64.28;38.60;;;;;;;;;;5062564;28;20031;-70
2021/07/01 14:22:35;;;;;;;62.58;39.92;;;;;;;;;;5066199;28;20166;-69
2021/07/01 14:25:20;;;;;;;59.58;37.95;;;;;;;;;;5047109;28;20037;-70
2021/07/01 14:27:48;;;;;;;66.45;38.28;;;;;;;;;;5039137;28;20418;-70
2021/07/01 14:30:34;;;;;;;69.80;41.58;;;;;;;;;;5051922;28;20035;-70
2021/07/01 14:33:01;;;;;;;67.75;38.75;;;;;;;;;;5041574;28;20026;-71
2021/07/01 14:35:30;;;;;;;65.20;39.35;;;;;;;;;;5042268;28;20048;-70